Time;durP1;ratioP1;P1;durP2;ratioP2;P2;SDS_P1;SDS_P2;PMS_P1;PMS_P2;Temp;Humidity;BMP_temperature;BMP_pressure;BME280_temperature;BME280_humidity;BME280_pressure;Samples;Min_cycle;Max_cycle;Signal;HPM_P1;HPM_P2
2022/01/02 00:01:35;;;;;;;8.98;5.25;;;;;;;;;;5003828;28;20514;-73
2022/01/02 00:04:03;;;;;;;9.82;6.50;;;;;;;;;;4978193;28;20548;-72
2022/01/02 00:06:31;;;;;;;9.27;5.72;;;;;;;;;;4995343;28;20042;-73
2022/01/02 00:09:07;;;;;;;11.52;5.85;;;;;;;;;;5011109;28;20080;-72
2022/01/02 00:11:37;;;;;;;9.43;5.82;;;;;;;;;;5003991;28;20066;-72
2022/01/02 00:14:07;;;;;;;11.68;5.88;;;;;;;;;;5011397;28;20113;-71
2022/01/02 00:16:35;;;;;;;9.38;5.78;;;;;;;;;;4974555;28;20041;-72
2022/01/02 00:19:06;;;;;;;8.13;5.65;;;;;;;;;;5000189;22;20772;-71
2022/01/02 00:21:33;;;;;;;9.70;5.80;;;;;;;;;;4993424;28;20073;-72
2022/01/02 00:24:06;;;;;;;8.32;5.35;;;;;;;;;;5011036;28;20141;-71
2022/01/02 00:26:39;;;;;;;9.82;5.55;;;;;;;;;;5011414;28;20034;-72
2022/01/02 00:29:07;;;;;;;10.60;6.20;;;;;;;;;;5010869;28;20061;-71
2022/01/02 00:31:33;;;;;;;8.55;5.75;;;;;;;;;;5010424;28;20474;-71
2022/01/02 00:34:00;;;;;;;9.48;6.03;;;;;;;;;;4993334;28;20033;-71
2022/01/02 00:36:25;;;;;;;8.48;5.65;;;;;;;;;;5011101;28;20076;-72
2022/01/02 00:38:51;;;;;;;8.90;5.57;;;;;;;;;;5010201;28;20030;-71
2022/01/02 00:41:23;;;;;;;7.88;5.18;;;;;;;;;;4992629;28;20442;-71
2022/01/02 00:44:01;;;;;;;11.10;6.15;;;;;;;;;;4993208;28;20470;-71
2022/01/02 00:46:28;;;;;;;10.73;6.70;;;;;;;;;;4984956;28;20045;-72
2022/01/02 00:48:58;;;;;;;11.27;6.32;;;;;;;;;;5010430;28;20049;-71
2022/01/02 00:51:34;;;;;;;13.88;6.95;;;;;;;;;;5010879;28;20045;-71
2022/01/02 00:54:01;;;;;;;9.57;6.35;;;;;;;;;;4992332;28;20606;-71
2022/01/02 00:56:28;;;;;;;10.73;6.45;;;;;;;;;;4976977;28;20471;-71
2022/01/02 00:58:59;;;;;;;11.35;6.15;;;;;;;;;;4992689;28;20092;-72
2022/01/02 01:01:34;;;;;;;10.38;6.53;;;;;;;;;;4993040;28;20034;-71
2022/01/02 01:04:01;;;;;;;10.43;6.68;;;;;;;;;;5009794;28;20041;-72
2022/01/02 01:06:32;;;;;;;10.18;6.35;;;;;;;;;;5002191;28;20026;-72
2022/01/02 01:09:04;;;;;;;11.75;5.97;;;;;;;;;;5010265;28;20490;-72
2022/01/02 01:11:29;;;;;;;8.80;5.75;;;;;;;;;;5010564;28;20034;-72
2022/01/02 01:13:56;;;;;;;9.85;6.10;;;;;;;;;;4992667;28;20052;-71
2022/01/02 01:16:22;;;;;;;8.20;5.38;;;;;;;;;;4991556;28;20034;-71
2022/01/02 01:21:29;;;;;;;8.30;5.25;;;;;;;;;;5802006;23;20102;-71
2022/01/02 01:23:56;;;;;;;9.85;5.28;;;;;;;;;;4950884;29;20039;-72
2022/01/02 01:26:22;;;;;;;9.18;5.85;;;;;;;;;;4949916;28;20085;-72
2022/01/02 01:28:48;;;;;;;8.50;5.43;;;;;;;;;;4950412;28;20035;-72
2022/01/02 01:31:13;;;;;;;10.00;5.32;;;;;;;;;;4942605;28;20090;-71
2022/01/02 01:33:39;;;;;;;10.73;5.57;;;;;;;;;;4933040;29;20624;-72
2022/01/02 01:36:04;;;;;;;8.10;5.43;;;;;;;;;;4933410;29;20114;-72
2022/01/02 01:38:30;;;;;;;8.25;5.75;;;;;;;;;;4942321;29;20407;-72
2022/01/02 01:41:10;;;;;;;9.68;5.75;;;;;;;;;;4935256;28;20072;-72
2022/01/02 01:43:51;;;;;;;10.80;5.95;;;;;;;;;;4931339;29;20032;-72
2022/01/02 01:46:16;;;;;;;8.52;5.40;;;;;;;;;;4931300;29;20036;-72
2022/01/02 01:48:50;;;;;;;8.75;5.65;;;;;;;;;;4936964;28;20411;-72
2022/01/02 01:51:16;;;;;;;9.38;5.05;;;;;;;;;;4952727;28;20499;-72
2022/01/02 01:53:41;;;;;;;8.25;5.18;;;;;;;;;;4954471;29;20046;-72
2022/01/02 01:56:07;;;;;;;8.88;5.85;;;;;;;;;;4954070;29;20392;-73
2022/01/02 01:58:32;;;;;;;9.15;4.50;;;;;;;;;;4949925;29;20088;-72
2022/01/02 02:00:58;;;;;;;7.18;5.40;;;;;;;;;;4943222;29;20039;-73
2022/01/02 02:03:34;;;;;;;7.35;4.97;;;;;;;;;;4931669;29;20036;-72
2022/01/02 02:06:01;;;;;;;7.57;4.95;;;;;;;;;;4915833;29;20183;-72
2022/01/02 02:08:27;;;;;;;7.47;5.65;;;;;;;;;;4931728;29;20115;-72
2022/01/02 02:10:56;;;;;;;10.07;5.07;;;;;;;;;;4935901;29;20027;-71
2022/01/02 02:13:24;;;;;;;7.70;5.50;;;;;;;;;;4954130;29;20058;-71
2022/01/02 02:15:51;;;;;;;9.55;5.80;;;;;;;;;;4947532;29;20057;-72
2022/01/02 02:18:18;;;;;;;8.93;5.43;;;;;;;;;;4934536;29;20035;-72
2022/01/02 02:20:44;;;;;;;8.95;5.55;;;;;;;;;;4935362;29;20051;-71
2022/01/02 02:23:23;;;;;;;9.45;4.90;;;;;;;;;;4953255;29;20480;-72
2022/01/02 02:25:49;;;;;;;8.45;4.85;;;;;;;;;;4940058;28;20051;-72
2022/01/02 02:28:16;;;;;;;8.82;5.57;;;;;;;;;;4948915;29;20042;-71
2022/01/02 02:30:46;;;;;;;8.05;5.13;;;;;;;;;;4947560;28;20059;-72
2022/01/02 02:33:13;;;;;;;9.50;5.13;;;;;;;;;;4952719;29;20111;-72
2022/01/02 02:35:41;;;;;;;9.20;5.15;;;;;;;;;;4953911;28;20035;-71
2022/01/02 02:38:15;;;;;;;7.88;5.57;;;;;;;;;;4954386;29;20035;-71
2022/01/02 02:40:42;;;;;;;7.90;4.82;;;;;;;;;;4952568;28;20039;-70
2022/01/02 02:51:22;;;;;;;7.70;5.18;;;;;;;;;;4935606;29;20186;-71
2022/01/02 02:53:49;;;;;;;9.70;5.70;;;;;;;;;;4939744;29;20067;-71
2022/01/02 02:56:22;;;;;;;9.18;5.35;;;;;;;;;;4954374;28;20506;-71
2022/01/02 02:58:50;;;;;;;10.50;5.97;;;;;;;;;;4953028;28;20178;-71
2022/01/02 03:01:19;;;;;;;9.10;5.53;;;;;;;;;;4943424;29;20059;-70
2022/01/02 03:03:45;;;;;;;8.40;5.68;;;;;;;;;;4932534;29;20036;-71
2022/01/02 03:06:12;;;;;;;8.27;5.82;;;;;;;;;;4952093;29;20035;-71
2022/01/02 03:08:38;;;;;;;8.75;6.05;;;;;;;;;;4952879;29;20046;-71
2022/01/02 03:11:10;;;;;;;10.18;6.05;;;;;;;;;;4954193;28;20039;-71
2022/01/02 03:13:35;;;;;;;7.55;5.63;;;;;;;;;;4953360;29;20476;-71
2022/01/02 03:16:01;;;;;;;8.77;5.45;;;;;;;;;;4938260;28;20038;-71
2022/01/02 03:18:27;;;;;;;15.30;6.88;;;;;;;;;;4952767;29;20145;-71
2022/01/02 03:20:52;;;;;;;9.63;5.75;;;;;;;;;;4954136;28;20059;-71
2022/01/02 03:23:18;;;;;;;9.18;6.22;;;;;;;;;;4952776;29;20106;-72
2022/01/02 03:25:43;;;;;;;11.32;6.63;;;;;;;;;;4948163;28;20042;-71
2022/01/02 03:28:09;;;;;;;9.02;5.90;;;;;;;;;;4950079;29;20042;-72
2022/01/02 03:30:34;;;;;;;9.88;5.97;;;;;;;;;;4949856;28;20063;-71
2022/01/02 03:33:00;;;;;;;11.02;6.53;;;;;;;;;;4933548;29;20122;-71
2022/01/02 03:35:26;;;;;;;11.32;6.40;;;;;;;;;;4934721;29;20152;-72
2022/01/02 03:37:52;;;;;;;12.35;6.47;;;;;;;;;;4940537;29;20046;-71
2022/01/02 03:40:17;;;;;;;12.35;6.57;;;;;;;;;;4936183;29;20046;-72
2022/01/02 03:42:43;;;;;;;11.95;6.70;;;;;;;;;;4953987;28;20039;-71
2022/01/02 03:45:10;;;;;;;11.27;6.85;;;;;;;;;;4951260;29;20083;-71
2022/01/02 03:47:36;;;;;;;11.98;6.82;;;;;;;;;;4947070;29;20039;-71
2022/01/02 03:50:04;;;;;;;12.20;7.13;;;;;;;;;;4948832;28;20066;-72
2022/01/02 03:52:30;;;;;;;10.70;7.07;;;;;;;;;;4952149;29;20035;-72
2022/01/02 03:54:57;;;;;;;12.00;7.28;;;;;;;;;;4952205;29;20035;-71
2022/01/02 03:57:23;;;;;;;11.48;7.10;;;;;;;;;;4951949;29;20035;-72
2022/01/02 03:59:49;;;;;;;11.27;7.07;;;;;;;;;;4937429;29;20035;-71
2022/01/02 04:02:14;;;;;;;11.07;6.25;;;;;;;;;;4943649;29;20030;-72
2022/01/02 04:04:41;;;;;;;11.30;7.13;;;;;;;;;;4951889;29;20035;-72
2022/01/02 04:07:06;;;;;;;11.73;7.00;;;;;;;;;;4952017;29;20570;-71
2022/01/02 04:09:32;;;;;;;14.25;8.00;;;;;;;;;;4947500;28;20044;-72
2022/01/02 04:11:58;;;;;;;11.50;6.43;;;;;;;;;;4947900;29;20483;-72
2022/01/02 04:14:23;;;;;;;10.82;6.90;;;;;;;;;;4951954;28;20035;-72
2022/01/02 04:16:49;;;;;;;12.77;7.63;;;;;;;;;;4939174;28;20032;-72
2022/01/02 04:19:15;;;;;;;10.48;6.57;;;;;;;;;;4933903;29;20082;-71
2022/01/02 04:21:40;;;;;;;13.50;7.90;;;;;;;;;;4933311;29;20079;-72
2022/01/02 04:24:06;;;;;;;13.68;7.90;;;;;;;;;;4949049;29;20028;-71
2022/01/02 04:26:31;;;;;;;12.18;7.20;;;;;;;;;;4929835;29;20058;-72
2022/01/02 04:28:57;;;;;;;14.73;7.47;;;;;;;;;;4936098;29;20106;-72
2022/01/02 04:31:23;;;;;;;15.10;8.02;;;;;;;;;;4941049;29;20046;-72
2022/01/02 04:33:49;;;;;;;12.50;8.10;;;;;;;;;;4932072;29;20119;-69
2022/01/02 04:36:15;;;;;;;14.77;8.38;;;;;;;;;;4925346;29;20076;-71
2022/01/02 04:38:42;;;;;;;12.65;7.70;;;;;;;;;;4945873;28;20035;-72
2022/01/02 04:41:09;;;;;;;14.32;8.50;;;;;;;;;;4934509;29;20070;-71
2022/01/02 04:43:35;;;;;;;10.95;7.15;;;;;;;;;;4935775;29;20589;-73
2022/01/02 04:46:01;;;;;;;11.43;7.47;;;;;;;;;;4943336;29;20126;-72
2022/01/02 04:48:26;;;;;;;14.95;8.00;;;;;;;;;;4932294;29;20035;-71
2022/01/02 04:50:52;;;;;;;13.40;7.38;;;;;;;;;;4933527;29;20114;-72
2022/01/02 04:53:20;;;;;;;11.55;7.43;;;;;;;;;;4931726;29;20649;-72
2022/01/02 04:55:45;;;;;;;11.95;7.68;;;;;;;;;;4938940;29;20122;-72
2022/01/02 04:58:12;;;;;;;11.95;7.15;;;;;;;;;;4930471;29;20123;-72
2022/01/02 05:00:38;;;;;;;12.35;8.05;;;;;;;;;;4930547;29;20047;-69
2022/01/02 05:03:05;;;;;;;11.77;7.35;;;;;;;;;;4932526;29;20024;-72
2022/01/02 05:05:31;;;;;;;11.02;6.45;;;;;;;;;;4944230;28;20043;-72
2022/01/02 05:07:58;;;;;;;11.18;7.43;;;;;;;;;;4943490;29;20043;-72
2022/01/02 05:10:24;;;;;;;10.13;6.47;;;;;;;;;;4933067;29;20036;-72
2022/01/02 05:12:50;;;;;;;9.57;6.60;;;;;;;;;;4931776;29;20046;-72
2022/01/02 05:15:17;;;;;;;11.93;6.50;;;;;;;;;;4931041;29;20040;-73
2022/01/02 05:17:45;;;;;;;10.55;6.35;;;;;;;;;;4944679;29;20033;-72
2022/01/02 05:20:11;;;;;;;11.02;5.50;;;;;;;;;;4935181;29;20163;-73
2022/01/02 05:22:37;;;;;;;9.65;6.32;;;;;;;;;;4950637;28;20134;-72
2022/01/02 05:25:04;;;;;;;8.50;5.60;;;;;;;;;;4950319;29;20047;-73
2022/01/02 05:27:30;;;;;;;9.82;6.43;;;;;;;;;;4938639;29;20386;-72
2022/01/02 05:29:55;;;;;;;13.05;6.38;;;;;;;;;;4946155;28;20034;-72
2022/01/02 05:32:21;;;;;;;7.95;5.40;;;;;;;;;;4933822;29;20041;-73
2022/01/02 05:34:46;;;;;;;9.68;4.38;;;;;;;;;;4946968;29;20032;-72
2022/01/02 05:37:12;;;;;;;9.90;5.90;;;;;;;;;;4932120;29;20040;-72
2022/01/02 05:39:37;;;;;;;9.55;4.75;;;;;;;;;;4943680;28;20031;-72
2022/01/02 05:42:03;;;;;;;8.98;5.75;;;;;;;;;;4934527;29;20503;-72
2022/01/02 05:44:30;;;;;;;7.05;4.93;;;;;;;;;;4932629;29;20043;-71
2022/01/02 05:46:57;;;;;;;12.88;5.05;;;;;;;;;;4931220;29;20510;-73
2022/01/02 05:49:22;;;;;;;7.40;4.32;;;;;;;;;;4931550;29;20130;-72
2022/01/02 05:51:48;;;;;;;6.15;3.67;;;;;;;;;;4938431;29;20114;-72
2022/01/02 05:54:14;;;;;;;7.13;4.15;;;;;;;;;;4950484;29;20121;-72
2022/01/02 05:56:39;;;;;;;5.75;3.38;;;;;;;;;;4950151;29;20027;-71
2022/01/02 05:59:05;;;;;;;6.57;3.67;;;;;;;;;;4949616;28;20081;-72
2022/01/02 06:01:31;;;;;;;5.05;3.75;;;;;;;;;;4936213;29;20050;-72
2022/01/02 06:03:57;;;;;;;4.85;3.63;;;;;;;;;;4950372;29;20031;-72
2022/01/02 06:06:23;;;;;;;4.38;3.03;;;;;;;;;;4950398;29;20039;-72
2022/01/02 06:08:49;;;;;;;5.57;3.30;;;;;;;;;;4950124;28;20035;-72
2022/01/02 06:11:14;;;;;;;5.47;3.05;;;;;;;;;;4943549;28;20040;-71
2022/01/02 06:13:40;;;;;;;4.45;2.92;;;;;;;;;;4951296;29;20483;-71
2022/01/02 06:16:08;;;;;;;4.53;2.78;;;;;;;;;;4943073;28;20028;-71
2022/01/02 06:18:34;;;;;;;3.33;2.40;;;;;;;;;;4930883;29;20072;-70
2022/01/02 06:20:59;;;;;;;4.10;2.97;;;;;;;;;;4947092;28;20039;-71
2022/01/02 06:23:25;;;;;;;4.43;2.72;;;;;;;;;;4934125;29;20126;-71
2022/01/02 06:25:51;;;;;;;3.22;2.60;;;;;;;;;;4934158;29;20039;-70
2022/01/02 06:28:17;;;;;;;5.00;2.58;;;;;;;;;;4949978;29;20035;-71
2022/01/02 06:30:43;;;;;;;2.85;2.50;;;;;;;;;;4944760;28;20031;-71
2022/01/02 06:33:09;;;;;;;3.28;2.38;;;;;;;;;;4941997;29;20397;-71
2022/01/02 06:35:35;;;;;;;5.50;3.33;;;;;;;;;;4949933;29;20032;-72
2022/01/02 06:38:16;;;;;;;3.80;2.92;;;;;;;;;;4953018;28;20531;-72
2022/01/02 06:40:44;;;;;;;3.88;2.80;;;;;;;;;;4953274;28;20086;-72
2022/01/02 06:43:13;;;;;;;3.28;2.75;;;;;;;;;;4952445;29;20118;-72
2022/01/02 06:45:39;;;;;;;4.13;2.95;;;;;;;;;;4941756;29;20083;-72
2022/01/02 06:48:05;;;;;;;3.35;2.78;;;;;;;;;;4950215;29;20040;-71
2022/01/02 06:50:32;;;;;;;4.65;3.00;;;;;;;;;;4934269;29;20122;-73
2022/01/02 06:52:58;;;;;;;3.28;2.67;;;;;;;;;;4934530;29;20036;-72
2022/01/02 06:55:24;;;;;;;4.38;3.03;;;;;;;;;;4941426;29;20055;-72
2022/01/02 06:57:49;;;;;;;4.05;2.63;;;;;;;;;;4960938;28;20106;-73
2022/01/02 07:00:17;;;;;;;4.85;3.22;;;;;;;;;;4974429;28;20039;-73
2022/01/02 07:02:43;;;;;;;6.15;3.53;;;;;;;;;;4972181;29;20055;-72
2022/01/02 07:05:09;;;;;;;5.53;3.80;;;;;;;;;;4964790;29;20062;-71
2022/01/02 07:07:42;;;;;;;7.07;3.53;;;;;;;;;;4947399;29;20111;-71
2022/01/02 07:10:13;;;;;;;5.70;2.97;;;;;;;;;;4951029;28;20524;-71
2022/01/02 07:12:39;;;;;;;3.83;3.28;;;;;;;;;;4954723;28;20063;-72
2022/01/02 07:15:06;;;;;;;5.63;3.17;;;;;;;;;;4954305;29;20066;-72
2022/01/02 07:17:32;;;;;;;12.32;2.88;;;;;;;;;;4932291;29;20035;-70
2022/01/02 07:19:57;;;;;;;4.28;2.80;;;;;;;;;;4930185;29;20453;-71
2022/01/02 07:22:23;;;;;;;5.90;3.25;;;;;;;;;;4923158;29;20089;-71
2022/01/02 07:24:51;;;;;;;4.72;3.10;;;;;;;;;;4932900;29;20089;-71
2022/01/02 07:27:20;;;;;;;4.43;3.08;;;;;;;;;;4932972;29;20044;-71
2022/01/02 07:29:51;;;;;;;3.67;3.13;;;;;;;;;;4932852;29;20039;-71
2022/01/02 07:32:17;;;;;;;5.05;3.42;;;;;;;;;;4934245;29;20113;-71
2022/01/02 07:34:43;;;;;;;4.60;3.15;;;;;;;;;;4948713;29;20038;-71
2022/01/02 07:37:12;;;;;;;7.55;3.10;;;;;;;;;;4934549;29;20024;-71
2022/01/02 07:39:37;;;;;;;5.22;3.28;;;;;;;;;;4938587;29;20035;-71
2022/01/02 07:42:03;;;;;;;4.80;2.92;;;;;;;;;;4954060;28;20047;-70
2022/01/02 07:44:37;;;;;;;5.47;3.28;;;;;;;;;;4968000;23;20042;-73
2022/01/02 07:47:04;;;;;;;3.83;2.72;;;;;;;;;;4952873;29;20407;-73
2022/01/02 07:49:30;;;;;;;4.60;3.22;;;;;;;;;;4955305;28;20088;-73
2022/01/02 07:51:55;;;;;;;2.72;2.53;;;;;;;;;;4972878;28;20117;-73
2022/01/02 07:54:21;;;;;;;3.15;2.33;;;;;;;;;;4950877;28;20156;-73
2022/01/02 07:56:46;;;;;;;4.07;2.47;;;;;;;;;;4957446;28;20081;-73
2022/01/02 07:59:12;;;;;;;4.05;2.38;;;;;;;;;;4975702;28;20062;-73
2022/01/02 08:01:37;;;;;;;5.32;2.72;;;;;;;;;;4955062;28;20082;-72
2022/01/02 08:04:03;;;;;;;2.67;2.10;;;;;;;;;;4953796;28;20035;-72
2022/01/02 08:06:28;;;;;;;4.80;2.25;;;;;;;;;;4949424;28;20047;-72
2022/01/02 08:08:54;;;;;;;3.10;2.08;;;;;;;;;;4950784;29;20042;-72
2022/01/02 08:11:19;;;;;;;3.03;2.38;;;;;;;;;;4950308;28;20031;-73
2022/01/02 08:13:45;;;;;;;4.85;2.50;;;;;;;;;;4949124;28;20047;-72
2022/01/02 08:16:13;;;;;;;4.93;1.95;;;;;;;;;;4948244;28;20043;-72
2022/01/02 08:18:40;;;;;;;5.32;2.25;;;;;;;;;;4949822;29;20513;-72
2022/01/02 08:21:05;;;;;;;3.42;2.35;;;;;;;;;;4950299;28;20041;-72
2022/01/02 08:23:31;;;;;;;2.22;1.92;;;;;;;;;;4942651;28;20039;-72
2022/01/02 08:25:57;;;;;;;4.00;2.47;;;;;;;;;;4956062;28;20035;-72
2022/01/02 08:28:22;;;;;;;3.25;2.30;;;;;;;;;;4970095;28;20535;-71
2022/01/02 08:30:48;;;;;;;3.47;2.30;;;;;;;;;;4964213;28;20031;-71
2022/01/02 08:33:14;;;;;;;3.97;2.72;;;;;;;;;;4949914;28;20038;-71
2022/01/02 08:35:41;;;;;;;4.95;2.60;;;;;;;;;;4945487;28;20038;-71
2022/01/02 08:38:06;;;;;;;6.60;2.90;;;;;;;;;;4950440;28;20035;-71
2022/01/02 08:40:32;;;;;;;3.17;2.75;;;;;;;;;;4951436;29;20122;-71
2022/01/02 08:42:57;;;;;;;4.43;3.00;;;;;;;;;;4949636;29;20554;-72
2022/01/02 08:45:23;;;;;;;4.05;2.60;;;;;;;;;;4949517;28;20049;-72
2022/01/02 08:47:49;;;;;;;7.35;2.80;;;;;;;;;;4950696;28;20097;-72
2022/01/02 08:50:15;;;;;;;4.60;2.90;;;;;;;;;;4951225;28;20062;-72
2022/01/02 08:52:40;;;;;;;3.60;2.80;;;;;;;;;;4950721;29;20455;-72
2022/01/02 08:55:06;;;;;;;6.72;3.13;;;;;;;;;;4951431;28;20042;-72
2022/01/02 08:57:32;;;;;;;3.00;2.60;;;;;;;;;;4946958;29;20132;-71
2022/01/02 08:59:57;;;;;;;3.58;2.97;;;;;;;;;;4952592;28;20035;-71
2022/01/02 09:02:22;;;;;;;3.67;2.80;;;;;;;;;;4949642;28;20118;-71
2022/01/02 09:04:48;;;;;;;5.05;2.67;;;;;;;;;;4941375;28;20112;-71
2022/01/02 09:07:13;;;;;;;6.75;3.03;;;;;;;;;;4948875;28;20114;-71
2022/01/02 09:09:40;;;;;;;4.07;3.33;;;;;;;;;;4970531;28;20038;-71
2022/01/02 09:12:07;;;;;;;5.70;2.97;;;;;;;;;;4962767;28;20046;-71
2022/01/02 09:14:32;;;;;;;4.05;3.03;;;;;;;;;;4951398;29;20089;-71
2022/01/02 09:16:58;;;;;;;4.93;3.67;;;;;;;;;;4950625;29;20031;-72
2022/01/02 09:19:23;;;;;;;4.80;3.25;;;;;;;;;;4928109;28;20042;-72
2022/01/02 09:21:49;;;;;;;4.60;3.35;;;;;;;;;;4952209;28;20085;-73
2022/01/02 09:24:14;;;;;;;6.55;3.60;;;;;;;;;;4971543;28;20035;-73
2022/01/02 09:26:40;;;;;;;5.30;3.33;;;;;;;;;;4944001;29;20040;-73
2022/01/02 09:29:06;;;;;;;4.93;3.47;;;;;;;;;;4951156;28;20456;-74
2022/01/02 09:31:31;;;;;;;4.85;3.38;;;;;;;;;;4952240;28;20035;-74
2022/01/02 09:33:57;;;;;;;4.57;3.40;;;;;;;;;;4952464;29;20035;-74
2022/01/02 09:36:22;;;;;;;4.63;3.60;;;;;;;;;;4950991;29;20058;-74
2022/01/02 09:38:48;;;;;;;6.65;3.95;;;;;;;;;;4940755;29;20040;-73
2022/01/02 09:41:14;;;;;;;4.75;3.35;;;;;;;;;;4931969;28;20053;-75
2022/01/02 09:43:40;;;;;;;5.18;3.88;;;;;;;;;;4940957;28;20419;-73
2022/01/02 09:46:06;;;;;;;5.30;3.30;;;;;;;;;;4950369;28;20123;-75
2022/01/02 09:48:31;;;;;;;10.45;4.45;;;;;;;;;;4942087;28;20039;-75
2022/01/02 09:50:57;;;;;;;8.10;4.20;;;;;;;;;;4954974;28;20046;-74
2022/01/02 09:53:23;;;;;;;10.35;4.00;;;;;;;;;;4934840;28;20118;-75
2022/01/02 09:55:49;;;;;;;6.90;4.30;;;;;;;;;;4939917;28;20045;-75
2022/01/02 09:58:15;;;;;;;5.93;3.88;;;;;;;;;;4934473;29;20082;-74
2022/01/02 10:00:46;;;;;;;5.35;3.88;;;;;;;;;;4933012;28;20035;-74
2022/01/02 10:03:13;;;;;;;6.00;3.55;;;;;;;;;;4937925;28;20038;-73
2022/01/02 10:05:56;;;;;;;8.70;3.65;;;;;;;;;;4932481;28;20050;-73
2022/01/02 10:08:24;;;;;;;3.80;3.38;;;;;;;;;;4933881;29;20047;-73
2022/01/02 10:11:18;;;;;;;5.13;3.90;;;;;;;;;;4941457;28;20058;-72
2022/01/02 10:13:54;;;;;;;4.18;2.95;;;;;;;;;;4930597;28;20039;-72
2022/01/02 10:16:28;;;;;;;6.10;3.28;;;;;;;;;;4938080;28;20124;-73
2022/01/02 10:18:55;;;;;;;2.80;2.55;;;;;;;;;;4926732;29;20031;-74
2022/01/02 10:21:37;;;;;;;3.65;3.00;;;;;;;;;;4930640;29;20035;-74
2022/01/02 10:24:15;;;;;;;3.95;3.05;;;;;;;;;;4938540;28;20047;-74
2022/01/02 10:27:01;;;;;;;5.93;3.00;;;;;;;;;;4945885;28;20130;-75
2022/01/02 10:29:37;;;;;;;3.10;2.80;;;;;;;;;;4945927;28;20066;-75
2022/01/02 10:32:30;;;;;;;2.83;2.47;;;;;;;;;;4930447;28;20048;-74
2022/01/02 10:35:11;;;;;;;3.58;2.70;;;;;;;;;;4937395;28;20035;-73
2022/01/02 10:37:38;;;;;;;3.50;2.83;;;;;;;;;;4929675;28;20124;-73
2022/01/02 10:40:05;;;;;;;5.00;3.10;;;;;;;;;;4931659;29;20047;-73
2022/01/02 10:42:40;;;;;;;3.85;3.10;;;;;;;;;;4929822;28;20067;-73
2022/01/02 10:45:06;;;;;;;6.28;3.28;;;;;;;;;;4931613;28;20039;-74
2022/01/02 10:47:31;;;;;;;4.85;3.70;;;;;;;;;;4929618;28;20031;-74
2022/01/02 10:50:03;;;;;;;5.72;3.25;;;;;;;;;;4929422;28;20036;-74
2022/01/02 10:52:35;;;;;;;5.75;3.63;;;;;;;;;;4945411;28;20641;-73
2022/01/02 10:55:08;;;;;;;5.15;3.50;;;;;;;;;;4944305;28;20070;-74
2022/01/02 10:57:33;;;;;;;4.03;3.10;;;;;;;;;;4927630;28;20040;-75
2022/01/02 11:00:00;;;;;;;4.95;3.47;;;;;;;;;;4933511;28;20041;-74
2022/01/02 11:02:26;;;;;;;5.22;3.50;;;;;;;;;;4928608;29;20094;-74
2022/01/02 11:05:01;;;;;;;7.47;3.60;;;;;;;;;;4931128;28;20027;-75
2022/01/02 11:07:47;;;;;;;10.85;3.58;;;;;;;;;;4929084;28;20051;-75
2022/01/02 11:10:14;;;;;;;3.63;3.22;;;;;;;;;;4929153;28;20408;-75
2022/01/02 11:12:41;;;;;;;5.28;3.20;;;;;;;;;;4942132;28;20557;-75
2022/01/02 11:15:09;;;;;;;3.72;3.10;;;;;;;;;;4926628;29;20039;-74
2022/01/02 11:17:35;;;;;;;3.58;2.80;;;;;;;;;;4943864;29;20114;-70
2022/01/02 11:20:09;;;;;;;3.83;2.90;;;;;;;;;;4940682;28;20040;-74
2022/01/02 11:22:42;;;;;;;2.65;2.25;;;;;;;;;;4936494;28;20062;-74
2022/01/02 11:25:12;;;;;;;3.95;2.55;;;;;;;;;;4926944;29;20131;-73
2022/01/02 11:27:44;;;;;;;7.13;2.83;;;;;;;;;;4951742;28;20035;-74
2022/01/02 11:30:28;;;;;;;3.78;2.63;;;;;;;;;;4936036;28;20050;-74
2022/01/02 11:33:06;;;;;;;4.85;2.30;;;;;;;;;;4937249;28;20479;-74
2022/01/02 11:35:33;;;;;;;3.92;2.58;;;;;;;;;;4936267;29;20035;-74
2022/01/02 11:38:03;;;;;;;4.97;2.40;;;;;;;;;;4927676;29;20669;-74
2022/01/02 11:40:58;;;;;;;3.42;2.13;;;;;;;;;;4928384;28;20043;-73
2022/01/02 11:43:35;;;;;;;4.35;2.40;;;;;;;;;;4928453;28;20035;-74
2022/01/02 11:46:24;;;;;;;3.83;2.40;;;;;;;;;;4933712;29;20158;-71
2022/01/02 11:49:05;;;;;;;2.83;2.55;;;;;;;;;;4937803;29;20130;-72
2022/01/02 11:52:08;;;;;;;3.92;2.50;;;;;;;;;;4931413;28;20047;-72
2022/01/02 11:54:40;;;;;;;3.75;2.40;;;;;;;;;;4935412;28;20772;-72
2022/01/02 11:57:12;;;;;;;1.85;1.58;;;;;;;;;;4942654;28;20046;-72
2022/01/02 11:59:43;;;;;;;2.30;2.10;;;;;;;;;;4942364;28;20090;-72
2022/01/02 12:02:18;;;;;;;1.98;1.80;;;;;;;;;;4933340;28;20506;-74
2022/01/02 12:07:53;;;;;;;2.55;1.88;;;;;;;;;;4942457;28;20105;-72
2022/01/02 12:10:21;;;;;;;2.25;2.05;;;;;;;;;;4942176;28;20051;-71
2022/01/02 12:12:56;;;;;;;2.25;1.70;;;;;;;;;;4944562;28;20034;-72
2022/01/02 12:15:25;;;;;;;4.13;1.77;;;;;;;;;;4934617;28;20050;-72
2022/01/02 12:18:11;;;;;;;5.03;1.88;;;;;;;;;;4958630;28;20039;-72
2022/01/02 12:20:52;;;;;;;2.85;1.83;;;;;;;;;;4933219;29;20138;-71
2022/01/02 12:23:29;;;;;;;4.38;2.00;;;;;;;;;;4943702;28;20078;-71
2022/01/02 12:26:00;;;;;;;2.35;1.77;;;;;;;;;;4935642;28;20100;-72
2022/01/02 12:28:27;;;;;;;3.80;2.03;;;;;;;;;;4942702;28;20121;-71
2022/01/02 12:30:53;;;;;;;2.17;1.80;;;;;;;;;;4950706;28;20070;-71
2022/01/02 12:33:24;;;;;;;3.40;2.17;;;;;;;;;;4938305;28;20048;-71
2022/01/02 12:35:50;;;;;;;2.85;1.88;;;;;;;;;;4932979;28;20074;-71
2022/01/02 12:38:15;;;;;;;2.00;1.80;;;;;;;;;;4934501;28;20066;-71
2022/01/02 12:40:41;;;;;;;1.98;1.55;;;;;;;;;;4930552;29;20496;-71
2022/01/02 12:43:08;;;;;;;6.03;1.75;;;;;;;;;;4938868;29;20094;-72
2022/01/02 12:45:35;;;;;;;1.65;1.25;;;;;;;;;;4941890;28;20119;-72
2022/01/02 12:48:01;;;;;;;2.33;1.75;;;;;;;;;;4937862;28;20508;-71
2022/01/02 12:50:28;;;;;;;2.30;1.52;;;;;;;;;;4930268;28;20039;-71
2022/01/02 12:52:55;;;;;;;1.80;1.58;;;;;;;;;;4938053;29;20050;-71
2022/01/02 12:55:21;;;;;;;2.95;1.55;;;;;;;;;;4934371;29;21077;-73
2022/01/02 12:57:47;;;;;;;3.40;1.52;;;;;;;;;;4937276;28;20031;-72
2022/01/02 13:00:13;;;;;;;4.38;1.70;;;;;;;;;;4940189;28;20861;-72
2022/01/02 13:02:38;;;;;;;5.78;1.45;;;;;;;;;;4937181;29;20365;-72
2022/01/02 13:05:05;;;;;;;5.18;1.67;;;;;;;;;;4936389;29;20507;-73
2022/01/02 13:07:37;;;;;;;1.55;1.38;;;;;;;;;;4935352;29;20082;-73
2022/01/02 13:10:08;;;;;;;3.83;1.35;;;;;;;;;;4932912;28;20035;-73
2022/01/02 13:12:38;;;;;;;1.70;1.60;;;;;;;;;;4938847;28;20039;-72
2022/01/02 13:15:08;;;;;;;2.40;1.80;;;;;;;;;;4926053;29;20031;-73
2022/01/02 13:17:40;;;;;;;2.75;2.10;;;;;;;;;;4935910;29;20562;-72
2022/01/02 13:20:10;;;;;;;3.65;1.90;;;;;;;;;;4935232;28;20044;-72
2022/01/02 13:22:38;;;;;;;1.95;1.42;;;;;;;;;;4943277;28;20027;-71
2022/01/02 13:25:26;;;;;;;1.58;1.48;;;;;;;;;;4942450;28;20137;-74
2022/01/02 13:28:00;;;;;;;3.83;1.15;;;;;;;;;;4942778;28;20114;-73
2022/01/02 13:30:29;;;;;;;0.82;0.82;;;;;;;;;;4938706;28;20758;-73
2022/01/02 13:32:55;;;;;;;1.10;1.00;;;;;;;;;;4942802;28;20035;-71
2022/01/02 13:35:24;;;;;;;1.10;0.90;;;;;;;;;;4942605;28;20111;-71
2022/01/02 13:38:04;;;;;;;0.50;0.50;;;;;;;;;;4943099;28;20075;-73
2022/01/02 13:40:31;;;;;;;1.25;0.68;;;;;;;;;;4949731;28;20035;-71
2022/01/02 13:43:05;;;;;;;0.50;0.50;;;;;;;;;;4935037;28;20938;-71
2022/01/02 13:45:33;;;;;;;0.57;0.50;;;;;;;;;;4934723;28;20035;-71
2022/01/02 13:48:15;;;;;;;2.30;0.80;;;;;;;;;;4934332;28;20068;-71
2022/01/02 13:50:46;;;;;;;0.43;0.35;;;;;;;;;;4932321;29;20443;-71
2022/01/02 13:53:21;;;;;;;0.50;0.50;;;;;;;;;;4932896;28;20512;-72
2022/01/02 13:56:05;;;;;;;1.10;0.35;;;;;;;;;;4932954;28;20063;-71
2022/01/02 13:58:39;;;;;;;4.10;0.60;;;;;;;;;;4937049;29;20098;-71
2022/01/02 14:01:13;;;;;;;2.03;0.63;;;;;;;;;;4931150;29;20063;-71
2022/01/02 14:03:41;;;;;;;0.60;0.60;;;;;;;;;;4931607;28;20067;-72
2022/01/02 14:06:09;;;;;;;0.68;0.65;;;;;;;;;;4926478;28;20122;-72
2022/01/02 14:08:40;;;;;;;1.52;0.50;;;;;;;;;;4933576;29;20039;-72
2022/01/02 14:11:19;;;;;;;0.63;0.63;;;;;;;;;;4959469;28;20031;-72
2022/01/02 14:13:48;;;;;;;1.00;0.90;;;;;;;;;;4934883;29;20144;-72
2022/01/02 14:16:31;;;;;;;0.85;0.80;;;;;;;;;;4927772;28;20043;-72
2022/01/02 14:18:57;;;;;;;2.38;0.70;;;;;;;;;;4927929;28;20054;-73
2022/01/02 14:21:23;;;;;;;1.00;0.80;;;;;;;;;;4942451;29;20043;-72
2022/01/02 14:23:48;;;;;;;1.90;1.10;;;;;;;;;;4943975;28;20039;-71
2022/01/02 14:26:15;;;;;;;1.20;1.10;;;;;;;;;;4926590;28;20070;-72
2022/01/02 14:28:40;;;;;;;2.00;1.20;;;;;;;;;;4926684;28;20396;-72
2022/01/02 14:31:06;;;;;;;0.80;0.80;;;;;;;;;;4926501;29;20048;-72
2022/01/02 14:33:32;;;;;;;1.23;0.90;;;;;;;;;;4928420;28;20046;-72
2022/01/02 14:35:57;;;;;;;0.50;0.50;;;;;;;;;;4926653;29;20031;-74
2022/01/02 14:38:23;;;;;;;8.35;0.90;;;;;;;;;;4926843;28;20051;-72
2022/01/02 14:40:48;;;;;;;2.17;1.00;;;;;;;;;;4928342;28;20035;-72
2022/01/02 14:43:14;;;;;;;1.98;1.30;;;;;;;;;;4925844;29;20047;-73
2022/01/02 14:45:39;;;;;;;5.07;1.00;;;;;;;;;;4933073;29;20032;-73
2022/01/02 14:48:05;;;;;;;3.17;0.80;;;;;;;;;;4928580;28;20027;-74
2022/01/02 14:50:30;;;;;;;1.17;0.80;;;;;;;;;;4926580;28;20035;-72
2022/01/02 14:52:56;;;;;;;2.05;0.90;;;;;;;;;;4940924;28;20102;-73
2022/01/02 14:55:21;;;;;;;2.50;1.13;;;;;;;;;;4925946;29;20046;-72
2022/01/02 14:57:51;;;;;;;1.00;0.65;;;;;;;;;;4932140;28;20062;-72
2022/01/02 15:00:20;;;;;;;3.47;0.73;;;;;;;;;;4933124;28;20058;-72
2022/01/02 15:02:46;;;;;;;8.70;1.00;;;;;;;;;;4944505;28;20043;-72